Mesquite, Texas
Current Conditions -  °F | °C
As of 1:50 PM on Wednesday 17 Dec 2014 (Local Time) from KHQZ Reporting Station
Overcast Overcast  
Wind Chill: 39°   Ceiling: 4200
Heat Index: 45°   Visibility: 10mi
Dew Point: 37°   Wind: 10mph
Humidity: 76%   Direction: 80°E
Pressure: 30.15"   Gusts: NA
Location:  32.78°N, 96.6°W
Report Text: KHQZ 171950Z 08009KT 10SM OVC042 07/03 A3015
Loading
Personal Weather Stations






























Interactive Weather Map New forecast layout! Learn more

10-Day Weather Forecast

Advertisements
Track Severe Weather on mobile